createdAt,value
2023-04-27T00:02:02.081Z,2.40
2023-04-27T00:04:29.633Z,2.17
2023-04-27T00:06:57.008Z,2.25
2023-04-27T00:09:24.235Z,2.50
2023-04-27T00:11:51.433Z,2.55
2023-04-27T00:14:18.686Z,2.22
2023-04-27T00:16:47.281Z,2.30
2023-04-27T00:19:15.376Z,2.22
2023-04-27T00:21:42.868Z,2.80
2023-04-27T00:24:10.103Z,2.90
2023-04-27T00:26:37.308Z,2.55
2023-04-27T00:29:04.541Z,3.08
2023-04-27T00:31:31.792Z,2.70
2023-04-27T00:34:00.507Z,2.38
2023-04-27T00:36:28.006Z,2.38
2023-04-27T00:38:55.191Z,2.55
2023-04-27T00:41:22.996Z,2.63
2023-04-27T00:43:50.329Z,2.28
2023-04-27T00:46:17.671Z,2.28
2023-04-27T00:48:44.924Z,2.60
2023-04-27T00:51:13.467Z,2.58
2023-04-27T00:53:40.663Z,2.92
2023-04-27T00:56:08.181Z,2.60
2023-04-27T00:58:35.546Z,2.38
2023-04-27T01:01:03.679Z,2.42
2023-04-27T01:03:31.426Z,2.30
2023-04-27T01:06:01.329Z,2.53
2023-04-27T01:08:29.965Z,2.45
2023-04-27T01:10:57.230Z,2.70
2023-04-27T01:13:24.451Z,2.65
2023-04-27T01:15:51.680Z,2.65
2023-04-27T01:18:19.243Z,2.75
2023-04-27T01:20:46.547Z,2.47
2023-04-27T01:23:17.110Z,2.65
2023-04-27T01:25:44.864Z,2.65
2023-04-27T01:28:12.519Z,2.58
2023-04-27T01:30:39.724Z,2.10
2023-04-27T01:33:07.003Z,2.45
2023-04-27T01:35:34.249Z,2.78
2023-04-27T01:38:01.582Z,2.20
2023-04-27T01:40:30.442Z,2.33
2023-04-27T01:42:57.656Z,2.40
2023-04-27T01:45:24.940Z,2.10
2023-04-27T01:47:52.863Z,2.67
2023-04-27T01:50:20.197Z,2.58
2023-04-27T01:52:47.476Z,2.33
2023-04-27T01:55:14.696Z,2.35
2023-04-27T01:57:43.256Z,2.35
2023-04-27T02:00:10.974Z,2.25
2023-04-27T02:02:38.331Z,2.70
2023-04-27T02:05:06.548Z,2.70
2023-04-27T02:07:33.876Z,2.47
2023-04-27T02:10:01.194Z,2.45
2023-04-27T02:12:28.416Z,2.40
2023-04-27T02:14:56.915Z,2.40
2023-04-27T02:17:24.164Z,2.75
2023-04-27T02:19:51.550Z,2.80
2023-04-27T02:22:18.773Z,2.65
2023-04-27T02:24:46.312Z,2.60
2023-04-27T02:27:13.539Z,2.45
2023-04-27T02:29:41.319Z,3.00
2023-04-27T02:32:10.339Z,2.90
2023-04-27T02:34:37.593Z,2.88
2023-04-27T02:37:04.809Z,2.90
2023-04-27T02:39:32.044Z,3.00
2023-04-27T02:41:59.284Z,2.88
2023-04-27T02:44:26.899Z,2.53
2023-04-27T02:46:54.194Z,2.45
2023-04-27T02:49:22.753Z,2.60
2023-04-27T02:51:49.973Z,2.85
2023-04-27T02:54:17.175Z,2.75
2023-04-27T02:56:44.554Z,2.60
2023-04-27T02:59:12.113Z,2.72
2023-04-27T03:01:39.563Z,2.78
2023-04-27T03:04:06.977Z,2.30
2023-04-27T03:06:35.701Z,2.88
2023-04-27T03:09:03.812Z,2.60
2023-04-27T03:11:31.049Z,2.78
2023-04-27T03:13:58.242Z,2.75
2023-04-27T03:16:25.536Z,2.75
2023-04-27T03:18:52.815Z,2.70
2023-04-27T03:21:20.042Z,2.55
2023-04-27T03:23:48.571Z,2.40
2023-04-27T03:26:15.842Z,2.65
2023-04-27T03:28:43.080Z,2.60
2023-04-27T03:31:10.637Z,2.50
2023-04-27T03:33:37.838Z,2.60
2023-04-27T03:36:05.350Z,2.50
2023-04-27T03:38:32.582Z,2.70
2023-04-27T03:41:01.204Z,2.72
2023-04-27T03:43:28.465Z,2.33
2023-04-27T03:45:55.962Z,2.47
2023-04-27T03:48:23.178Z,2.53
2023-04-27T03:50:50.378Z,2.50
2023-04-27T03:53:17.589Z,2.70
2023-04-27T03:55:45.151Z,2.40
2023-04-27T03:58:13.697Z,2.45
2023-04-27T04:00:40.950Z,2.80
2023-04-27T04:03:08.609Z,2.72
2023-04-27T04:05:35.972Z,2.10
2023-04-27T04:08:03.454Z,2.15
2023-04-27T04:10:30.717Z,2.30
2023-04-27T04:12:57.958Z,2.33
2023-04-27T04:15:26.478Z,2.28
2023-04-27T04:17:53.810Z,2.20
2023-04-27T04:20:21.452Z,2.10
2023-04-27T04:22:48.684Z,2.30
2023-04-27T04:25:15.896Z,2.20
2023-04-27T04:27:43.094Z,2.22
2023-04-27T04:30:11.419Z,2.17
2023-04-27T04:32:40.266Z,2.40
2023-04-27T04:35:07.738Z,2.35
2023-04-27T04:37:35.489Z,2.38
2023-04-27T04:40:08.741Z,2.20
2023-04-27T04:42:36.944Z,2.30
2023-04-27T04:45:04.389Z,2.28
2023-04-27T04:47:32.891Z,2.47
2023-04-27T04:50:01.902Z,2.38
2023-04-27T04:52:29.138Z,2.40
2023-04-27T04:54:56.338Z,2.38
2023-04-27T04:57:23.669Z,2.47
2023-04-27T04:59:50.937Z,2.17
2023-04-27T05:02:18.203Z,2.30
2023-04-27T05:04:45.630Z,2.10
2023-04-27T05:07:15.270Z,2.40
2023-04-27T05:09:43.308Z,2.42
2023-04-27T05:12:10.554Z,2.10
2023-04-27T05:14:37.762Z,2.55
2023-04-27T05:17:04.990Z,2.70
2023-04-27T05:19:32.222Z,2.70
2023-04-27T05:21:59.532Z,2.65
2023-04-27T05:24:28.068Z,5.13
2023-04-27T05:26:55.474Z,3.42
2023-04-27T05:29:22.734Z,3.22
2023-04-27T05:31:50.053Z,4.28
2023-04-27T05:34:17.358Z,3.88
2023-04-27T05:36:44.620Z,4.35
2023-04-27T05:39:12.135Z,3.78
2023-04-27T05:41:40.849Z,3.40
2023-04-27T05:44:08.053Z,13.88
2023-04-27T05:46:37.910Z,5.03
2023-04-27T05:49:05.901Z,3.83
2023-04-27T05:51:33.128Z,3.78
2023-04-27T05:54:01.809Z,3.75
2023-04-27T05:56:29.051Z,4.22
2023-04-27T05:58:57.596Z,3.42
2023-04-27T06:01:24.823Z,4.55
2023-04-27T06:03:52.128Z,4.50
2023-04-27T06:06:19.416Z,4.07
2023-04-27T06:08:46.660Z,3.75
2023-04-27T06:11:13.878Z,4.70
2023-04-27T06:13:41.364Z,4.78
2023-04-27T06:16:09.971Z,4.75
2023-04-27T06:18:37.276Z,4.07
2023-04-27T06:21:04.582Z,4.43
2023-04-27T06:23:31.811Z,4.32
2023-04-27T06:25:59.617Z,4.20
2023-04-27T06:28:27.092Z,5.80
2023-04-27T06:30:54.278Z,5.85
2023-04-27T06:33:22.808Z,5.13
2023-04-27T06:35:50.249Z,5.10
2023-04-27T06:38:17.490Z,5.18
2023-04-27T06:40:45.629Z,8.10
2023-04-27T06:43:12.852Z,9.32
2023-04-27T06:45:40.355Z,8.02
2023-04-27T06:48:07.585Z,7.18
2023-04-27T06:50:36.210Z,6.43
2023-04-27T06:53:03.647Z,6.30
2023-04-27T06:55:30.916Z,6.30
2023-04-27T06:57:58.153Z,5.95
2023-04-27T07:00:25.643Z,5.95
2023-04-27T07:02:52.940Z,5.00
2023-04-27T07:05:20.292Z,15.80
2023-04-27T07:07:48.809Z,7.35
2023-04-27T07:10:16.059Z,7.97
2023-04-27T07:12:43.288Z,5.88
2023-04-27T07:15:10.617Z,5.15
2023-04-27T07:17:37.830Z,5.07
2023-04-27T07:20:06.087Z,5.22
2023-04-27T07:22:33.480Z,4.90
2023-04-27T07:25:02.045Z,5.93
2023-04-27T07:27:29.239Z,4.88
2023-04-27T07:29:56.601Z,5.95
2023-04-27T07:32:23.862Z,6.18
2023-04-27T07:34:54.130Z,5.43
2023-04-27T07:37:21.771Z,6.38
2023-04-27T07:39:49.981Z,6.68
2023-04-27T07:42:18.524Z,6.57
2023-04-27T07:44:45.775Z,5.97
2023-04-27T07:47:13.421Z,5.60
2023-04-27T07:49:40.799Z,6.63
2023-04-27T07:52:08.258Z,6.65
2023-04-27T07:54:35.637Z,5.85
2023-04-27T07:57:03.758Z,5.32
2023-04-27T07:59:32.296Z,5.18
2023-04-27T08:02:10.792Z,2.90
2023-04-27T08:04:45.564Z,3.05
2023-04-27T08:07:13.310Z,2.42
2023-04-27T08:09:40.716Z,2.78
2023-04-27T08:12:08.034Z,2.20
2023-04-27T08:14:36.559Z,2.08
2023-04-27T08:17:03.869Z,2.53
2023-04-27T08:19:31.112Z,2.55
2023-04-27T08:21:58.297Z,2.33
2023-04-27T08:24:25.681Z,2.47
2023-04-27T08:26:52.908Z,2.20
2023-04-27T08:29:28.021Z,2.35
2023-04-27T08:31:58.958Z,2.65
2023-04-27T08:34:26.323Z,2.78
2023-04-27T08:36:54.206Z,2.40
2023-04-27T08:39:21.748Z,2.80
2023-04-27T08:41:48.947Z,2.83
2023-04-27T08:44:16.200Z,2.92
2023-04-27T08:46:43.518Z,2.88
2023-04-27T08:49:13.698Z,7.45
2023-04-27T08:51:42.456Z,6.63
2023-04-27T08:54:09.810Z,5.03
2023-04-27T08:56:37.151Z,5.88
2023-04-27T08:59:04.859Z,6.10
2023-04-27T09:01:32.656Z,7.70
2023-04-27T09:04:00.613Z,7.97
2023-04-27T09:06:32.569Z,6.82
2023-04-27T09:09:00.009Z,3.95
2023-04-27T09:11:31.277Z,4.55
2023-04-27T09:13:59.172Z,4.82
2023-04-27T09:16:26.631Z,2.92
2023-04-27T09:18:53.912Z,4.40
2023-04-27T09:21:24.255Z,4.03
2023-04-27T09:23:52.766Z,3.30
2023-04-27T09:26:21.531Z,3.40
2023-04-27T09:28:49.480Z,2.78
2023-04-27T09:31:16.849Z,2.20
2023-04-27T09:33:44.430Z,2.35
2023-04-27T09:36:11.607Z,2.15
2023-04-27T09:38:38.823Z,2.33
2023-04-27T09:41:07.328Z,2.75
2023-04-27T09:43:34.535Z,2.33
2023-04-27T09:46:01.905Z,2.42
2023-04-27T09:48:29.118Z,2.40
2023-04-27T09:50:56.298Z,2.30
2023-04-27T09:53:24.340Z,2.60
2023-04-27T09:55:51.957Z,2.45
2023-04-27T09:58:28.700Z,2.10
2023-04-27T10:00:58.185Z,2.25
2023-04-27T10:03:29.176Z,2.13
2023-04-27T10:06:07.513Z,2.35
2023-04-27T10:08:34.821Z,2.40
2023-04-27T10:11:02.217Z,2.13
2023-04-27T10:13:32.265Z,2.20
2023-04-27T10:15:59.432Z,2.17
2023-04-27T10:18:27.438Z,2.10
2023-04-27T10:20:54.648Z,2.03
2023-04-27T10:23:25.176Z,1.80
2023-04-27T10:25:53.034Z,2.10
2023-04-27T10:28:21.177Z,2.22
2023-04-27T10:30:50.098Z,2.20
2023-04-27T10:33:17.511Z,1.83
2023-04-27T10:35:45.206Z,2.30
2023-04-27T10:38:18.836Z,2.50
2023-04-27T10:40:46.398Z,1.77
2023-04-27T10:43:13.993Z,2.13
2023-04-27T10:45:41.361Z,1.90
2023-04-27T10:48:09.924Z,2.10
2023-04-27T10:50:37.116Z,1.85
2023-04-27T10:53:04.673Z,1.88
2023-04-27T10:55:32.061Z,1.98
2023-04-27T10:58:00.023Z,1.60
2023-04-27T11:00:27.825Z,1.90
2023-04-27T11:02:55.292Z,1.60
2023-04-27T11:05:25.307Z,1.80
2023-04-27T11:07:52.826Z,1.63
2023-04-27T11:10:20.044Z,1.98
2023-04-27T11:12:47.350Z,1.80
2023-04-27T11:15:14.665Z,1.88
2023-04-27T11:17:42.180Z,1.70
2023-04-27T11:20:09.944Z,1.70
2023-04-27T11:22:46.338Z,1.50
2023-04-27T11:25:13.573Z,1.75
2023-04-27T11:27:41.414Z,1.95
2023-04-27T11:30:18.835Z,1.80
2023-04-27T11:32:46.105Z,1.55
2023-04-27T11:35:13.541Z,1.55
2023-04-27T11:37:40.753Z,1.55
2023-04-27T11:40:10.752Z,1.80
2023-04-27T11:42:37.968Z,1.75
2023-04-27T11:45:06.006Z,1.65
2023-04-27T11:47:33.702Z,1.80
2023-04-27T11:50:01.735Z,1.67
2023-04-27T11:52:29.045Z,1.70
2023-04-27T11:54:56.647Z,1.60
2023-04-27T11:57:27.555Z,1.48
2023-04-27T11:59:54.914Z,1.60
2023-04-27T12:02:22.881Z,1.70
2023-04-27T12:04:50.328Z,1.70
2023-04-27T12:07:17.663Z,1.58
2023-04-27T12:09:44.847Z,1.83
2023-04-27T12:12:12.760Z,1.67
2023-04-27T12:14:41.425Z,1.50
2023-04-27T12:17:08.736Z,1.80
2023-04-27T12:19:37.141Z,1.80
2023-04-27T12:22:04.453Z,1.60
2023-04-27T12:24:32.140Z,1.77
2023-04-27T12:26:59.367Z,1.63
2023-04-27T12:29:26.591Z,1.80
2023-04-27T12:31:55.288Z,1.60
2023-04-27T12:34:22.634Z,2.05
2023-04-27T12:36:49.847Z,1.77
2023-04-27T12:39:17.369Z,1.85
2023-04-27T12:41:44.980Z,1.52
2023-04-27T12:44:12.681Z,1.80
2023-04-27T12:46:40.297Z,1.80
2023-04-27T12:49:09.025Z,1.63
2023-04-27T12:51:36.538Z,1.80
2023-04-27T12:54:03.866Z,1.75
2023-04-27T12:56:31.294Z,1.60
2023-04-27T12:58:58.499Z,1.75
2023-04-27T13:01:27.527Z,1.90
2023-04-27T13:03:55.032Z,1.60
2023-04-27T13:06:23.684Z,1.60
2023-04-27T13:08:51.003Z,1.65
2023-04-27T13:11:18.290Z,1.60
2023-04-27T13:13:45.521Z,1.73
2023-04-27T13:16:12.844Z,1.85
2023-04-27T13:18:40.485Z,1.67
2023-04-27T13:21:08.249Z,1.70
2023-04-27T13:23:36.785Z,1.80
2023-04-27T13:28:25.564Z,1.60
2023-04-27T13:30:52.740Z,1.60
2023-04-27T13:33:23.145Z,1.77
2023-04-27T13:35:51.093Z,1.73
2023-04-27T13:38:18.356Z,1.90
2023-04-27T13:40:46.869Z,1.95
2023-04-27T13:43:14.072Z,1.80
2023-04-27T13:45:42.529Z,1.60
2023-04-27T13:48:09.767Z,1.80
2023-04-27T13:50:37.085Z,1.67
2023-04-27T13:53:04.275Z,1.50
2023-04-27T13:55:31.469Z,1.80
2023-04-27T13:57:59.955Z,1.73
2023-04-27T14:00:28.694Z,1.60
2023-04-27T14:02:56.102Z,1.45
2023-04-27T14:05:23.394Z,1.88
2023-04-27T14:07:50.629Z,1.70
2023-04-27T14:10:17.881Z,1.70
2023-04-27T14:12:45.074Z,1.45
2023-04-27T14:15:13.715Z,1.90
2023-04-27T14:17:40.956Z,1.85
2023-04-27T14:20:08.817Z,1.73
2023-04-27T14:22:36.093Z,1.70
2023-04-27T14:25:03.338Z,1.85
2023-04-27T14:27:30.530Z,2.28
2023-04-27T14:29:57.737Z,2.03
2023-04-27T14:32:26.705Z,1.48
2023-04-27T14:34:54.069Z,1.85
2023-04-27T14:37:21.335Z,1.60
2023-04-27T14:39:48.543Z,1.92
2023-04-27T14:42:16.177Z,1.60
2023-04-27T14:44:43.448Z,2.00
2023-04-27T14:47:10.719Z,1.70
2023-04-27T14:49:39.274Z,1.63
2023-04-27T14:52:06.624Z,1.70
2023-04-27T14:54:35.457Z,1.70
2023-04-27T14:57:02.659Z,1.70
2023-04-27T14:59:30.108Z,1.50
2023-04-27T15:01:57.625Z,1.70
2023-04-27T15:04:24.953Z,1.60
2023-04-27T15:06:54.180Z,1.88
2023-04-27T15:09:21.366Z,1.70
2023-04-27T15:11:48.554Z,1.77
2023-04-27T15:14:15.748Z,1.60
2023-04-27T15:16:42.930Z,1.50
2023-04-27T15:19:10.128Z,1.60
2023-04-27T15:21:37.305Z,1.67
2023-04-27T15:24:06.140Z,1.30
2023-04-27T15:26:33.332Z,1.75
2023-04-27T15:29:00.746Z,1.67
2023-04-27T15:31:28.015Z,1.70
2023-04-27T15:33:55.315Z,1.80
2023-04-27T15:36:23.211Z,1.70
2023-04-27T15:38:51.526Z,1.60
2023-04-27T15:41:20.030Z,1.63
2023-04-27T15:43:47.449Z,1.55
2023-04-27T15:46:15.528Z,1.58
2023-04-27T15:48:42.790Z,1.58
2023-04-27T15:51:10.547Z,1.60
2023-04-27T15:53:37.896Z,1.80
2023-04-27T15:56:05.250Z,1.63
2023-04-27T15:58:33.753Z,1.70
2023-04-27T16:01:01.102Z,1.70
2023-04-27T16:03:28.373Z,1.75
2023-04-27T16:05:55.905Z,1.70
2023-04-27T16:08:23.270Z,1.58
2023-04-27T16:10:50.543Z,1.70
2023-04-27T16:13:17.759Z,1.50
2023-04-27T16:15:46.273Z,1.52
2023-04-27T16:18:13.559Z,1.90
2023-04-27T16:20:40.794Z,1.80
2023-04-27T16:23:08.021Z,1.50
2023-04-27T16:25:35.392Z,1.70
2023-04-27T16:28:02.908Z,1.50
2023-04-27T16:30:30.534Z,1.70
2023-04-27T16:32:59.060Z,1.50
2023-04-27T16:35:26.393Z,1.70
2023-04-27T16:37:54.406Z,1.50
2023-04-27T16:40:21.724Z,1.65
2023-04-27T16:42:48.914Z,1.85
2023-04-27T16:45:16.191Z,1.50
2023-04-27T16:47:43.439Z,1.75
2023-04-27T16:50:12.247Z,1.65
2023-04-27T16:52:39.433Z,1.83
2023-04-27T16:55:07.248Z,1.52
2023-04-27T16:57:34.428Z,1.60
2023-04-27T17:00:01.845Z,1.60
2023-04-27T17:02:29.154Z,1.67
2023-04-27T17:04:57.585Z,1.70
2023-04-27T17:07:28.339Z,1.50
2023-04-27T17:09:56.052Z,1.75
2023-04-27T17:12:23.303Z,1.60
2023-04-27T17:14:50.505Z,1.70
2023-04-27T17:17:17.726Z,1.55
2023-04-27T17:19:44.941Z,1.65
2023-04-27T17:22:13.188Z,1.90
2023-04-27T17:24:41.747Z,1.90
2023-04-27T17:27:08.987Z,1.70
2023-04-27T17:29:37.157Z,1.48
2023-04-27T17:32:04.864Z,1.80
2023-04-27T17:34:32.161Z,1.80
2023-04-27T17:36:59.350Z,1.60
2023-04-27T17:39:26.696Z,1.65
2023-04-27T17:41:55.349Z,1.77
2023-04-27T17:44:22.557Z,1.50
2023-04-27T17:46:50.129Z,1.80
2023-04-27T17:49:17.568Z,1.70
2023-04-27T17:51:44.872Z,1.90
2023-04-27T17:54:12.253Z,1.70
2023-04-27T17:56:39.456Z,2.08
2023-04-27T17:59:08.821Z,1.95
2023-04-27T18:01:36.260Z,1.83
2023-04-27T18:04:05.591Z,1.63
2023-04-27T18:06:33.142Z,1.70
2023-04-27T18:09:00.606Z,1.67
2023-04-27T18:11:27.786Z,1.90
2023-04-27T18:13:55.022Z,1.60
2023-04-27T18:16:23.552Z,1.77
2023-04-27T18:18:50.908Z,1.80
2023-04-27T18:21:18.116Z,1.63
2023-04-27T18:23:45.891Z,1.73
2023-04-27T18:26:13.336Z,1.70
2023-04-27T18:28:41.633Z,1.80
2023-04-27T18:31:14.083Z,1.50
2023-04-27T18:33:43.272Z,1.60
2023-04-27T18:36:10.538Z,2.08
2023-04-27T18:38:37.749Z,1.70
2023-04-27T18:41:05.005Z,1.95
2023-04-27T18:43:32.201Z,1.95
2023-04-27T18:45:59.481Z,1.60
2023-04-27T18:48:26.714Z,1.70
2023-04-27T18:50:55.338Z,1.70
2023-04-27T18:53:22.559Z,1.60
2023-04-27T18:55:49.755Z,1.73
2023-04-27T18:58:16.966Z,1.77
2023-04-27T19:00:44.177Z,1.77
2023-04-27T19:03:11.480Z,1.70
2023-04-27T19:05:40.059Z,1.85
2023-04-27T19:08:08.952Z,1.90
2023-04-27T19:10:36.261Z,1.52
2023-04-27T19:13:03.487Z,1.67
2023-04-27T19:15:30.927Z,1.70
2023-04-27T19:18:07.138Z,1.77
2023-04-27T19:20:37.550Z,1.83
2023-04-27T19:23:05.034Z,1.92
2023-04-27T19:25:33.583Z,1.42
2023-04-27T19:28:00.828Z,1.60
2023-04-27T19:30:28.052Z,1.67
2023-04-27T19:32:55.248Z,1.35
2023-04-27T19:35:23.694Z,1.77
2023-04-27T19:37:50.981Z,1.40
2023-04-27T19:40:18.383Z,1.58
2023-04-27T19:42:46.928Z,1.45
2023-04-27T19:45:14.228Z,1.83
2023-04-27T19:47:41.954Z,1.77
2023-04-27T19:50:09.446Z,1.98
2023-04-27T19:52:36.945Z,1.80
2023-04-27T19:55:04.425Z,1.63
2023-04-27T19:57:31.646Z,1.83
2023-04-27T20:00:00.173Z,1.77
2023-04-27T20:02:27.452Z,1.85
2023-04-27T20:04:54.996Z,1.70
2023-04-27T20:07:22.471Z,1.95
2023-04-27T20:09:49.791Z,1.80
2023-04-27T20:12:40.086Z,1.80
2023-04-27T20:15:06.702Z,1.77
2023-04-27T20:17:33.930Z,1.88
2023-04-27T20:20:01.164Z,1.90
2023-04-27T20:22:28.443Z,1.50
2023-04-27T20:24:58.873Z,2.10
2023-04-27T20:27:26.098Z,1.70
2023-04-27T20:29:53.294Z,1.60
2023-04-27T20:32:21.787Z,1.42
2023-04-27T20:34:48.976Z,1.90
2023-04-27T20:37:16.853Z,2.00
2023-04-27T20:39:44.060Z,1.88
2023-04-27T20:42:12.405Z,2.03
2023-04-27T20:44:39.907Z,1.90
2023-04-27T20:47:07.141Z,1.60
2023-04-27T20:49:35.913Z,1.77
2023-04-27T20:52:03.187Z,2.00
2023-04-27T20:54:32.597Z,2.00
2023-04-27T20:57:01.306Z,1.83
2023-04-27T20:59:28.679Z,1.98
2023-04-27T21:01:56.290Z,2.00
2023-04-27T21:04:23.658Z,1.90
2023-04-27T21:06:52.732Z,2.03
2023-04-27T21:09:19.958Z,2.00
2023-04-27T21:11:47.156Z,2.20
2023-04-27T21:14:14.639Z,1.75
2023-04-27T21:16:42.069Z,1.85
2023-04-27T21:19:12.801Z,2.15
2023-04-27T21:21:40.039Z,1.90
2023-04-27T21:24:08.708Z,1.95
2023-04-27T21:26:35.919Z,1.85
2023-04-27T21:29:05.286Z,1.60
2023-04-27T21:31:32.611Z,1.90
2023-04-27T21:33:59.876Z,2.10
2023-04-27T21:36:27.105Z,1.85
2023-04-27T21:38:54.412Z,1.88
2023-04-27T21:41:22.963Z,1.90
2023-04-27T21:43:51.116Z,1.83
2023-04-27T21:46:18.402Z,1.60
2023-04-27T21:48:45.660Z,2.20
2023-04-27T21:51:12.891Z,1.65
2023-04-27T21:53:40.301Z,1.38
2023-04-27T21:56:07.944Z,1.70
2023-04-27T21:58:36.488Z,2.08
2023-04-27T22:01:03.711Z,1.88
2023-04-27T22:03:31.103Z,1.98
2023-04-27T22:05:59.255Z,1.73
2023-04-27T22:08:26.566Z,1.80
2023-04-27T22:10:53.799Z,1.58
2023-04-27T22:13:20.990Z,1.85
2023-04-27T22:15:49.541Z,1.67
2023-04-27T22:18:16.803Z,1.80
2023-04-27T22:20:44.038Z,1.80
2023-04-27T22:23:11.451Z,1.55
2023-04-27T22:25:38.697Z,1.77
2023-04-27T22:28:06.003Z,1.67
2023-04-27T22:30:33.192Z,1.83
2023-04-27T22:33:01.734Z,1.85
2023-04-27T22:35:29.018Z,1.80
2023-04-27T22:37:56.387Z,1.42
2023-04-27T22:40:24.225Z,1.65
2023-04-27T22:42:51.777Z,1.90
2023-04-27T22:45:18.962Z,1.80
2023-04-27T22:47:46.365Z,1.77
2023-04-27T22:50:15.061Z,1.95
2023-04-27T22:52:42.987Z,1.95
2023-04-27T22:55:10.364Z,1.90
2023-04-27T22:57:37.588Z,2.05
2023-04-27T23:00:05.959Z,2.08
2023-04-27T23:02:33.285Z,1.80
2023-04-27T23:05:00.826Z,1.60
2023-04-27T23:07:29.890Z,1.90
2023-04-27T23:09:57.101Z,1.77
2023-04-27T23:12:26.857Z,1.60
2023-04-27T23:14:54.071Z,1.65
2023-04-27T23:17:23.274Z,1.80
2023-04-27T23:19:50.517Z,1.60
2023-04-27T23:22:17.721Z,1.50
2023-04-27T23:24:46.262Z,1.90
2023-04-27T23:27:13.470Z,1.90
2023-04-27T23:29:40.667Z,1.73
2023-04-27T23:32:07.893Z,1.77
2023-04-27T23:34:35.093Z,1.90
2023-04-27T23:37:02.338Z,1.70
2023-04-27T23:39:29.521Z,1.67
2023-04-27T23:41:58.052Z,1.60
2023-04-27T23:44:25.243Z,1.70
2023-04-27T23:46:52.470Z,1.83
2023-04-27T23:49:19.730Z,1.65
2023-04-27T23:51:47.865Z,1.80
2023-04-27T23:54:15.233Z,1.70
2023-04-27T23:56:42.644Z,1.75
2023-04-27T23:59:11.211Z,1.90
